Date,TemperatureHighF,TemperatureAvgF,TemperatureLowF,DewpointHighF,DewpointAvgF,DewpointLowF,HumidityHigh,HumidityAvg,HumidityLow,PressureMaxIn,PressureMinIn,WindSpeedMaxMPH,WindSpeedAvgMPH,GustSpeedMaxMPH,PrecipitationSumIn
2012-1-1,62.0,52.6,40.7,57.0,47.0,40.0,96,82,59,30.20,29.90,16,5,22,0.00
2012-1-2,59.6,47.7,35.9,56.0,29.3,19.0,89,51,28,30.02,29.89,9,1,12,0.00
2012-1-3,38.5,33.5,27.0,19.0,13.5,7.0,57,44,35,30.32,29.93,8,2,13,0.00
2012-1-4,40.3,31.3,20.5,29.0,15.8,4.0,70,54,35,30.45,30.14,17,2,18,0.00
2012-1-5,55.4,43.9,36.8,39.0,27.5,21.0,85,54,35,30.14,30.01,6,1,10,0.00
2012-1-6,58.0,48.8,37.3,46.0,38.9,30.0,85,70,51,30.16,30.01,10,4,15,0.00
2012-1-7,65.4,54.4,47.4,51.0,45.2,41.0,92,73,45,30.06,29.96,8,4,9,0.00
2012-1-8,61.4,52.9,48.7,52.0,43.8,32.0,95,73,37,30.29,30.06,7,1,9,0.00
2012-1-9,49.7,47.2,43.5,48.0,44.1,34.0,97,89,55,30.26,30.05,5,1,6,0.22
2012-1-10,52.8,48.0,44.6,48.0,45.8,42.0,98,92,75,30.13,30.03,6,1,8,0.00
2012-1-11,59.2,53.1,44.7,59.0,51.0,43.0,99,92,78,30.04,29.58,15,3,22,0.55
2012-1-12,58.4,54.7,49.9,57.0,50.3,46.0,96,85,72,29.72,29.59,17,8,22,0.00
2012-1-13,62.2,46.8,38.7,57.0,31.0,20.0,85,56,39,30.07,29.60,20,6,28,0.00
2012-1-14,45.9,39.0,30.7,30.0,24.8,21.0,76,58,40,30.24,30.05,4,1,9,0.00
2012-1-15,45.4,39.3,29.6,33.0,26.9,22.0,79,62,46,30.58,30.16,7,1,16,0.00
2012-1-16,46.6,38.6,27.9,42.0,32.0,23.0,87,78,63,30.65,30.40,7,2,10,0.00
2012-1-17,65.8,55.2,45.4,55.0,50.5,42.0,92,84,67,30.38,29.99,18,7,22,0.00
2012-1-18,59.6,49.8,36.5,57.0,45.6,32.0,95,86,74,30.11,29.88,12,2,15,0.32
2012-1-19,48.7,40.8,30.0,40.0,33.4,27.0,87,75,56,30.24,30.08,8,2,10,0.00
2012-1-20,56.2,47.4,38.8,46.0,42.0,36.0,94,82,58,30.24,30.12,6,2,9,0.00
2012-1-21,61.8,54.7,44.2,58.0,52.7,43.0,98,93,80,30.16,29.94,19,5,29,0.49
2012-1-22,44.0,41.6,38.3,43.0,40.5,37.0,97,95,93,30.34,30.15,5,1,9,0.00
2012-1-23,59.9,50.0,43.1,59.0,49.3,42.0,98,97,93,30.29,30.08,7,2,13,0.00
2012-1-24,72.0,60.5,50.6,65.0,57.8,50.0,99,91,64,30.20,30.06,8,2,10,0.01
2012-1-25,55.4,49.8,43.6,52.0,47.6,43.0,98,92,83,30.33,30.20,7,2,10,0.01
2012-1-26,62.9,53.1,42.0,60.0,51.7,42.0,99,95,88,30.21,29.89,8,2,16,0.01
2012-1-27,69.0,61.4,50.6,64.0,56.7,43.0,97,85,56,30.02,29.66,29,8,32,0.06
2012-1-28,61.5,50.7,39.8,53.0,45.7,38.0,94,83,68,30.16,30.02,8,1,10,0.00
2012-1-29,51.3,44.6,39.2,45.0,35.1,29.0,89,70,49,30.34,30.16,10,2,12,0.00
2012-1-30,57.8,47.1,37.2,42.0,30.4,23.0,85,55,26,30.45,30.29,8,1,10,0.00
2012-1-31,64.1,52.7,42.2,47.0,41.8,35.0,91,69,37,30.45,30.32,14,4,16,0.00
2012-2-1,69.4,58.7,49.7,55.0,50.8,44.0,88,76,48,30.32,30.11,12,5,17,0.00
2012-2-2,68.8,59.5,48.0,60.0,53.4,46.0,96,82,54,30.26,30.00,8,2,13,0.04
2012-2-3,53.9,47.4,39.7,46.0,39.6,33.0,94,75,46,30.49,30.27,14,3,14,0.00
2012-2-4,61.4,51.9,38.1,57.0,47.7,37.0,95,86,73,30.43,30.04,12,4,15,0.00
2012-2-5,60.6,49.1,40.1,56.0,47.4,38.0,97,94,86,30.23,29.98,4,1,8,0.39
2012-2-6,50.3,44.2,35.5,45.0,39.8,34.0,94,85,67,30.30,30.12,7,2,10,0.01
2012-2-7,54.8,47.8,41.5,47.0,43.7,40.0,96,86,64,30.19,30.11,9,2,11,0.02
2012-2-8,57.6,45.6,37.0,51.0,42.5,36.0,96,89,70,30.18,30.03,6,1,10,0.01
2012-2-9,49.3,41.5,33.9,38.0,35.3,33.0,97,80,56,30.29,30.15,8,2,11,0.00
2012-2-10,51.1,44.0,33.5,45.0,40.0,32.0,97,86,70,30.28,29.90,5,1,6,0.08
2012-2-11,52.2,44.8,28.3,46.0,37.0,12.0,97,76,44,29.93,29.66,8,1,16,0.00
2012-2-12,39.1,31.5,23.7,21.0,12.0,6.0,63,45,33,30.24,29.94,10,2,14,0.00
2012-2-13,46.9,37.4,25.9,35.0,23.7,16.0,82,59,37,30.31,30.19,10,3,14,0.00
2012-2-14,50.4,44.5,36.2,45.0,39.4,32.0,91,82,72,30.20,30.08,7,1,9,0.01
2012-2-15,61.9,49.6,44.1,46.0,43.3,41.0,93,80,48,30.32,30.11,7,1,10,0.00
2012-2-16,60.2,51.6,43.9,60.0,49.0,40.0,98,91,76,30.33,29.98,10,2,11,0.13
2012-2-17,60.3,51.6,46.4,54.0,49.0,45.0,97,91,73,30.12,29.98,5,1,7,0.00
2012-2-18,56.7,51.3,45.8,49.0,45.1,41.0,94,80,58,30.16,29.99,7,2,11,0.00
2012-2-19,53.7,48.7,43.1,53.0,47.5,42.0,97,95,90,29.99,29.64,7,2,12,0.74
2012-2-20,50.8,41.3,35.7,41.0,34.6,31.0,96,79,47,30.38,29.75,13,2,17,0.01
2012-2-21,57.2,45.1,33.1,55.0,41.9,31.0,95,88,76,30.38,30.04,9,2,11,0.00
2012-2-22,68.4,57.9,50.8,56.0,51.9,47.0,94,81,52,30.04,29.66,15,5,19,0.00
2012-2-23,70.4,61.9,58.0,61.0,58.1,56.0,95,87,71,29.75,29.62,14,5,16,0.00
2012-2-24,66.6,63.6,59.5,65.0,61.3,54.0,96,92,83,29.74,29.63,22,10,26,0.29
2012-2-25,58.9,49.6,39.8,51.0,28.6,21.0,75,46,29,30.31,29.74,8,2,15,0.00
2012-2-26,46.7,40.0,30.3,40.0,28.4,20.0,93,64,48,30.53,30.32,12,3,13,0.00
2012-2-27,60.1,52.3,38.2,56.0,48.7,35.0,97,87,72,30.49,30.32,9,2,14,0.00
2012-2-28,56.2,52.4,47.9,55.0,48.5,42.0,97,87,68,30.43,30.32,12,3,14,0.00
2012-2-29,66.1,57.2,44.9,63.0,54.8,43.0,98,91,77,30.34,29.92,16,6,23,0.00
2012-3-1,80.3,67.0,63.0,65.0,61.9,58.0,93,84,47,29.91,29.72,15,6,19,0.00
2012-3-2,64.8,60.3,54.6,63.0,58.0,52.0,97,92,86,30.03,29.79,19,5,24,0.00
2012-3-3,68.5,63.9,58.1,64.0,61.2,57.0,97,91,78,29.79,29.69,16,8,22,0.30
2012-3-4,58.2,46.4,40.0,57.0,42.9,33.0,97,88,71,30.05,29.64,6,1,11,1.25
2012-3-5,59.4,46.4,34.8,46.0,34.7,28.0,87,66,34,30.48,29.97,24,5,33,0.00
2012-3-6,47.6,38.8,30.2,37.0,31.6,26.0,89,76,55,30.70,30.49,15,3,16,0.00
2012-3-7,57.6,49.1,36.5,54.0,45.5,34.0,94,87,80,30.68,30.50,7,1,9,0.00
2012-3-8,67.7,60.7,53.0,60.0,55.7,50.0,93,84,68,30.50,30.20,18,5,21,0.00
2012-3-9,63.6,54.1,40.6,62.0,52.6,39.0,97,94,91,30.30,30.10,9,3,11,0.05
2012-3-10,54.1,46.1,38.1,43.0,38.4,32.0,98,76,55,30.56,30.29,12,3,17,0.00
2012-3-11,56.4,49.4,38.0,45.0,39.3,32.0,82,69,53,30.61,30.48,9,3,11,0.00
2012-3-12,63.6,53.5,40.5,57.0,49.5,39.0,96,86,70,30.47,30.32,11,3,14,0.00
2012-3-13,66.3,61.1,54.6,60.0,57.3,52.0,93,87,79,30.31,30.17,13,4,15,0.00
2012-3-14,72.8,65.3,58.3,64.0,60.7,57.0,96,85,70,30.25,30.16,7,2,8,0.00
2012-3-15,76.7,65.4,57.6,66.0,61.4,57.0,98,87,65,30.30,30.21,9,3,13,0.00
2012-3-16,73.4,65.9,60.9,66.0,62.8,60.0,98,90,72,30.26,30.15,11,4,14,0.00
2012-3-17,71.7,64.9,59.4,66.0,62.8,59.0,98,93,81,30.27,30.15,10,3,13,0.02
2012-3-18,66.7,61.0,56.6,64.0,59.9,56.0,99,96,88,30.31,30.20,6,1,7,0.00
2012-3-19,71.6,63.1,55.3,67.0,61.2,55.0,99,94,82,30.24,30.13,10,2,10,0.01
2012-3-20,73.9,67.3,58.6,68.0,64.3,58.0,98,90,78,30.25,30.16,10,3,14,0.00
2012-3-21,71.6,67.2,62.4,67.0,64.4,62.0,99,91,79,30.32,30.22,14,4,17,0.00
2012-3-22,72.2,67.5,63.9,66.0,64.2,63.0,96,89,76,30.31,30.18,12,6,13,0.01
2012-3-23,78.3,68.8,62.4,70.0,65.3,62.0,98,89,72,30.18,30.01,12,4,13,0.00
2012-3-24,71.2,67.9,65.4,69.0,66.2,64.0,98,94,86,30.03,29.83,14,4,22,0.01
2012-3-25,74.4,65.6,60.9,66.0,62.4,59.0,99,90,65,29.80,29.62,10,2,18,0.61
2012-3-26,74.8,62.9,55.7,59.0,53.1,39.0,97,74,35,30.09,29.70,10,2,15,0.16
2012-3-27,58.6,51.8,45.0,45.0,37.0,29.0,78,58,36,30.34,30.10,16,3,16,0.00
2012-3-28,70.7,61.5,51.4,64.0,53.8,44.0,89,76,57,30.32,29.88,20,8,20,0.00
2012-3-29,84.1,70.5,61.8,62.0,55.4,41.0,84,63,24,29.97,29.81,14,3,18,0.00
2012-3-30,67.7,64.2,61.3,63.0,57.1,50.0,94,78,67,30.04,29.90,11,3,14,0.02
2012-3-31,68.1,66.0,60.9,67.0,63.9,59.0,97,92,85,29.91,29.69,9,2,12,0.22
2012-4-1,62.9,57.6,50.7,59.0,53.8,50.0,97,87,72,29.92,29.74,12,4,16,0.63
2012-4-2,70.4,63.8,54.3,63.0,52.9,43.0,93,70,40,29.94,29.61,11,3,14,0.00
2012-4-3,67.2,58.2,45.6,58.0,48.7,39.0,96,73,37,30.05,29.89,12,5,16,0.00
2012-4-4,79.7,69.3,63.8,66.0,63.9,59.0,94,83,57,29.89,29.61,11,4,15,0.00
2012-4-5,67.8,59.6,51.3,66.0,51.6,42.0,95,76,52,29.82,29.60,9,2,12,0.00
2012-4-6,54.2,48.3,42.6,49.0,43.7,39.0,95,85,60,30.05,29.74,5,1,13,0.86
2012-4-7,64.6,52.3,39.7,47.0,36.4,29.0,93,60,26,30.23,30.06,6,1,13,0.00
2012-4-8,73.3,60.5,51.1,59.0,48.0,31.0,87,67,21,30.16,29.93,12,4,14,0.00
2012-4-9,71.3,62.5,54.0,60.0,48.6,33.0,89,63,26,30.04,29.90,18,6,21,0.00
2012-4-10,75.3,63.5,53.1,57.0,51.2,36.0,88,68,25,29.97,29.77,21,6,25,0.00
2012-4-11,65.6,56.5,43.1,55.0,38.3,30.0,73,52,33,30.09,29.76,10,2,13,0.00
2012-4-12,62.5,50.3,38.3,46.0,34.3,31.0,76,57,32,30.18,30.09,5,1,10,0.00
2012-4-13,66.5,56.1,41.2,50.0,43.5,35.0,92,66,32,30.29,30.17,8,2,12,0.00
2012-4-14,69.1,60.6,46.4,58.0,50.7,45.0,95,72,43,30.39,30.23,16,6,20,0.00
2012-4-15,73.0,67.9,63.6,64.0,61.0,58.0,87,79,68,30.27,30.18,18,9,23,0.00
2012-4-16,79.4,70.0,62.8,65.0,61.9,59.0,93,77,51,30.24,30.12,15,7,20,0.00
2012-4-17,81.3,71.7,65.0,71.0,64.1,60.0,89,77,59,30.16,30.07,9,3,11,0.00
2012-4-18,72.0,66.9,61.9,63.0,59.6,54.0,92,78,55,30.15,30.03,9,2,13,0.00
2012-4-19,64.0,60.2,57.7,61.0,58.3,56.0,97,93,89,30.07,29.99,2,0,9,0.38
2012-4-20,68.7,61.7,54.9,65.0,59.2,54.0,96,92,85,30.02,29.88,12,2,12,0.00
2012-4-21,76.4,69.3,59.7,69.0,65.4,59.0,99,88,73,29.89,29.73,15,5,20,0.00
2012-4-22,68.8,63.5,52.0,67.0,61.6,50.0,97,93,85,29.73,29.34,19,5,24,1.18
2012-4-23,59.1,52.3,46.3,50.0,46.0,40.0,95,80,53,29.73,29.45,9,1,14,0.00
2012-4-24,65.3,56.0,45.5,44.0,37.2,28.0,86,53,26,29.81,29.70,12,2,19,0.00
2012-4-25,69.6,59.8,48.1,57.0,47.9,37.0,89,66,49,29.98,29.84,13,3,16,0.00
2012-4-26,75.7,69.0,61.3,66.0,62.9,57.0,92,81,65,29.97,29.74,20,8,25,0.00
2012-4-27,78.4,68.3,63.7,66.0,61.3,58.0,87,78,61,30.11,29.83,9,4,22,0.00
2012-4-28,65.8,61.9,55.5,62.0,58.4,54.0,95,88,81,30.17,30.08,7,1,10,0.51
2012-4-29,62.3,59.1,54.4,60.0,56.8,53.0,96,92,88,30.23,30.11,8,2,10,0.00
2012-4-30,72.2,65.8,56.8,67.0,61.9,55.0,94,87,77,30.29,30.18,12,4,14,0.00
2012-5-1,75.2,71.6,67.8,70.0,68.2,67.0,96,89,81,30.20,30.07,17,8,21,0.00
2012-5-2,82.5,74.4,68.4,72.0,69.1,67.0,94,84,60,30.14,30.06,10,4,13,0.00
2012-5-3,89.6,76.8,68.5,74.0,70.0,67.0,93,80,51,30.13,30.03,7,3,13,0.00
2012-5-4,89.2,77.2,68.3,73.0,69.7,66.0,95,79,48,30.05,29.92,7,2,10,0.00
2012-5-5,89.5,77.6,68.5,74.0,69.7,67.0,97,78,48,29.92,29.78,12,2,15,3.00
2012-5-6,75.9,69.9,64.1,71.0,67.0,61.0,98,91,77,30.02,29.80,7,1,11,0.02
2012-5-7,72.5,67.7,60.6,65.0,61.0,55.0,94,80,54,30.07,29.98,14,4,16,0.00
2012-5-8,76.2,67.7,66.9,66.0,54.2,-99.9,83,69,56,30.05,29.92,12,-36,14,0.00
2012-5-9,79.6,73.1,66.6,72.0,67.9,65.0,96,84,67,29.92,29.63,18,6,21,0.00
2012-5-10,76.2,67.3,58.9,65.0,56.3,49.0,95,71,38,29.94,29.64,6,1,13,0.00
2012-5-11,72.0,64.9,55.6,60.0,53.8,50.0,87,69,47,30.24,29.95,11,2,13,0.00
2012-5-12,75.4,68.5,56.5,63.0,54.8,45.0,94,65,36,30.36,30.25,11,3,11,0.00
2012-5-13,73.9,70.9,68.5,63.0,60.1,55.0,80,69,54,30.30,30.18,12,8,17,0.00
2012-5-14,75.3,71.9,69.7,70.0,65.0,61.0,92,79,71,30.18,30.02,18,9,21,0.00
2012-5-15,78.2,74.3,71.4,73.0,70.6,65.0,95,88,76,30.03,29.96,13,6,16,0.09
2012-5-16,78.5,73.3,67.6,73.0,70.7,65.0,94,91,82,29.99,29.89,15,5,20,1.04
2012-5-17,75.0,69.8,64.9,73.0,68.1,64.0,98,94,85,30.00,29.90,12,1,19,0.47
2012-5-18,72.7,65.6,60.8,66.0,60.9,54.0,97,85,71,30.05,29.96,5,1,10,0.47
2012-5-19,75.2,64.7,56.0,66.0,56.7,44.0,94,77,44,30.09,30.00,13,1,14,0.00
2012-5-20,73.3,65.5,57.3,67.0,60.3,52.0,93,83,76,30.08,30.02,8,1,11,0.00
2012-5-21,75.0,69.3,62.3,70.0,66.8,62.0,97,92,84,30.02,29.89,8,3,11,0.00
2012-5-22,81.2,70.8,65.4,72.0,68.1,64.0,98,91,69,29.90,29.82,11,2,42,1.57
2012-5-23,79.4,74.6,69.0,72.0,69.9,67.0,97,86,70,30.00,29.84,19,6,24,0.25
2012-5-24,81.3,74.9,67.6,75.0,71.7,67.0,99,90,72,30.06,29.98,10,3,14,0.25
2012-5-25,79.8,75.3,70.9,74.0,71.4,69.0,96,88,80,30.10,30.03,12,2,15,0.01
2012-5-26,80.5,76.2,71.9,74.0,72.0,70.0,95,87,77,30.10,30.03,10,3,18,0.01
2012-5-27,81.1,77.2,74.3,75.0,73.5,72.0,94,88,78,30.12,30.04,11,6,17,0.01
2012-5-28,82.6,78.3,73.1,75.0,74.1,72.0,95,87,77,30.12,30.03,13,8,16,0.01
2012-5-29,81.4,78.1,75.3,76.0,74.7,72.0,95,89,78,30.05,29.88,17,9,20,0.11
2012-5-30,77.3,76.0,73.6,75.0,74.4,73.0,98,94,91,29.88,29.53,17,8,29,2.96
2012-6-8,72.9,72.5,72.0,66.0,66.0,66.0,80,79,79,30.04,30.03,3,1,5,0.00
2012-6-9,85.0,75.4,64.7,70.0,65.4,55.0,92,73,37,30.11,30.02,13,4,15,0.00
2012-6-10,86.2,76.7,68.6,71.0,68.5,66.0,92,77,51,30.19,30.09,12,4,14,0.00
2012-6-11,79.7,76.4,70.9,72.0,70.0,65.0,91,81,62,30.20,30.11,14,6,16,0.00
2012-6-12,79.3,76.6,74.6,74.0,72.1,67.0,94,86,76,30.11,29.91,21,10,23,0.01
2012-6-13,84.8,78.2,71.1,75.0,72.8,68.0,97,84,65,29.96,29.84,11,2,13,0.01
2012-6-14,77.1,70.3,62.6,69.0,64.3,59.0,91,81,72,30.12,29.96,6,1,9,0.00
2012-6-15,78.6,70.5,63.2,67.0,62.9,59.0,90,77,63,30.19,30.07,7,1,10,0.00
2012-6-16,79.2,69.0,60.4,67.0,60.4,56.0,96,76,52,30.20,30.14,10,1,15,0.00
2012-6-17,76.5,68.1,59.5,67.0,62.6,58.0,97,83,63,30.15,30.03,15,2,15,0.00
2012-6-18,79.0,69.8,59.7,68.0,62.4,-99.9,97,80,63,30.14,30.06,9,-8,12,0.00
2012-6-19,83.5,76.5,67.8,73.0,69.2,65.0,92,78,62,30.18,30.12,10,4,13,0.00
2012-6-20,88.7,79.6,71.5,76.0,72.8,69.0,94,80,61,30.17,30.07,11,4,13,0.00
2012-6-21,88.5,80.1,72.7,78.0,74.0,70.0,91,82,62,30.08,29.91,13,4,16,0.00
2012-6-22,86.5,78.6,72.4,78.0,68.9,-99.9,94,78,70,29.97,29.82,18,-14,20,0.42
2012-6-23,87.0,76.4,70.7,77.0,72.0,68.0,96,86,68,30.04,29.88,18,4,26,0.64
2012-6-24,83.1,77.5,69.8,77.0,73.7,69.0,98,88,77,30.02,29.94,8,3,13,0.00
2012-6-25,84.7,79.4,72.0,78.0,75.6,69.0,97,88,72,29.94,29.70,19,6,26,0.07
2012-6-26,77.4,70.7,64.1,70.0,62.3,57.0,97,77,49,29.88,29.73,4,1,7,0.44
2012-6-27,80.4,72.6,61.1,67.0,60.9,56.0,88,68,47,29.96,29.84,12,3,15,0.00
2012-6-28,90.0,78.3,65.4,73.0,66.5,60.0,95,70,39,30.00,29.90,14,4,16,0.00
2012-6-29,87.9,81.8,77.4,81.0,75.8,70.0,92,82,75,29.91,29.76,13,8,15,0.00
2012-6-30,90.2,83.5,77.5,81.0,78.3,76.0,97,85,66,29.89,29.79,14,4,14,0.00
2012-7-1,87.4,81.5,69.2,83.0,77.5,67.0,96,88,69,30.02,29.86,21,8,29,0.05
2012-7-2,88.7,81.3,73.6,78.0,72.9,68.0,91,76,61,29.98,29.93,6,1,10,0.00
2012-7-3,89.3,82.4,75.3,79.0,76.7,74.0,97,84,65,30.01,29.94,14,5,15,0.00
2012-7-4,92.2,83.9,80.3,81.0,76.4,-99.9,92,81,58,29.97,29.89,14,-4,16,0.00
2012-7-5,92.2,84.9,79.6,81.0,78.7,76.0,92,82,67,29.94,29.85,16,6,17,0.00
2012-7-6,92.2,83.8,78.4,84.0,77.9,-99.9,95,84,70,29.95,29.88,13,-6,14,0.00
2012-7-7,95.4,85.5,80.1,83.0,79.4,77.0,93,83,59,30.00,29.93,13,4,16,0.00
2012-7-8,92.2,85.7,81.2,83.0,79.1,76.0,89,81,72,29.98,29.86,17,7,19,0.00
2012-7-9,92.9,84.2,80.1,82.0,77.2,-99.9,90,82,52,29.95,29.84,15,-4,20,0.00
2012-7-10,89.8,80.0,72.2,79.0,75.8,72.0,99,88,66,30.01,29.90,21,2,33,3.46
2012-7-11,82.2,75.8,71.6,77.0,74.2,71.0,100,95,81,30.10,30.00,7,1,10,4.23
2012-7-12,83.6,76.2,72.6,76.0,74.2,72.0,99,94,76,30.16,30.07,9,2,15,0.22
2012-7-13,83.9,78.8,74.1,79.0,76.2,73.0,99,91,81,30.20,30.14,12,2,16,0.16
2012-7-14,89.0,82.4,75.7,78.0,76.5,74.0,98,83,67,30.23,30.16,12,4,15,0.00
2012-7-15,87.9,82.4,75.3,78.0,76.3,74.0,96,82,68,30.21,30.09,14,6,18,0.00
2012-7-16,88.3,81.0,71.6,79.0,75.4,69.0,97,83,64,30.10,29.91,15,4,17,0.11
2012-7-17,89.3,82.6,74.8,80.0,76.8,73.0,96,83,66,29.98,29.90,16,5,20,0.01
2012-7-18,88.2,83.1,79.5,80.0,78.0,77.0,93,85,69,30.02,29.94,17,9,21,0.00
2012-7-19,89.5,83.9,79.9,81.0,78.7,77.0,91,84,71,30.04,29.95,18,10,25,0.00
2012-7-20,87.4,81.9,74.1,81.0,77.1,72.0,96,85,72,29.98,29.90,20,8,26,0.23
2012-7-21,88.5,78.1,73.3,81.0,75.4,71.0,97,92,75,30.11,29.95,17,2,21,0.21
2012-7-22,90.2,80.6,73.7,81.0,76.9,72.0,97,88,71,30.17,30.08,16,3,21,0.06
2012-7-23,92.2,82.6,72.7,82.0,78.1,71.0,96,87,68,30.18,30.01,17,5,21,0.22
2012-7-24,93.1,81.3,73.3,82.0,76.4,72.0,97,85,68,30.03,29.75,15,3,18,1.57
2012-7-25,86.4,79.8,73.4,76.0,73.3,71.0,93,81,66,29.96,29.81,10,3,11,0.00
2012-7-26,87.9,83.1,78.8,83.0,79.3,74.0,93,88,83,29.94,29.82,15,9,19,0.00
2012-7-27,94.8,86.1,79.8,85.0,80.7,75.0,90,84,64,29.96,29.84,14,7,17,0.00
2012-7-28,90.0,81.7,71.8,81.0,76.6,69.0,93,85,68,30.03,29.92,16,3,35,0.75
2012-7-29,88.1,79.6,71.8,79.0,74.3,69.0,95,84,70,30.01,29.91,12,2,16,0.01
2012-7-30,82.8,77.3,72.4,78.0,74.6,71.0,98,91,78,30.03,29.95,14,2,19,0.77
2012-7-31,84.5,78.2,73.0,78.0,75.1,72.0,99,90,74,30.00,29.90,11,4,14,0.01
2012-8-1,80.6,77.6,71.1,78.0,74.6,70.0,99,90,81,29.93,29.85,15,4,20,1.75
2012-8-2,86.1,79.4,72.6,78.0,74.9,71.0,98,87,70,29.99,29.88,10,3,11,0.00
2012-8-3,87.4,81.5,74.7,79.0,76.3,73.0,98,85,68,30.11,29.98,11,4,14,0.00
2012-8-4,87.0,82.4,77.1,79.0,77.6,75.0,97,85,74,30.23,30.08,14,6,16,0.03
2012-8-5,87.1,83.7,81.0,79.0,78.0,75.0,91,83,69,30.25,30.13,13,8,17,0.00
2012-8-6,85.4,81.3,77.4,80.0,77.5,74.0,94,88,77,30.15,30.03,15,5,18,0.00
2012-8-7,83.2,78.7,75.6,78.0,76.5,74.0,97,93,80,30.06,29.99,15,2,16,0.21
2012-8-8,81.3,78.1,75.7,77.0,75.9,75.0,98,93,84,30.02,29.96,11,4,15,0.09
2012-8-9,87.2,80.5,73.2,79.0,76.4,72.0,98,88,73,30.00,29.90,12,5,17,0.14
2012-8-10,84.7,81.3,76.0,79.0,77.8,74.0,96,89,78,29.93,29.86,20,12,27,0.48
2012-8-11,82.1,79.1,74.4,79.0,76.1,73.0,96,90,82,30.02,29.90,21,9,28,1.21
2012-8-12,81.9,78.0,73.6,77.0,74.7,71.0,95,89,78,30.02,29.95,13,5,16,0.04
2012-8-13,86.9,80.4,74.2,79.0,76.1,73.0,98,87,70,30.04,29.95,11,3,12,0.17
2012-8-14,90.0,83.3,76.0,79.0,75.2,68.0,97,78,49,29.97,29.89,14,6,18,0.00
2012-8-15,88.7,80.8,73.2,80.0,75.7,70.0,94,85,70,29.94,29.86,15,5,19,0.00
2012-8-16,84.5,78.6,72.3,77.0,74.0,71.0,97,86,70,30.00,29.90,10,2,12,0.00
2012-8-17,87.3,81.6,75.5,78.0,75.9,72.0,95,83,62,29.99,29.84,12,6,15,0.62
2012-8-18,88.0,80.2,74.6,79.0,75.1,73.0,95,85,62,29.89,29.82,15,2,19,0.01
2012-8-19,85.4,77.1,72.2,79.0,74.7,71.0,99,92,75,29.92,29.81,17,3,18,2.20
2012-8-20,82.0,76.2,71.5,75.0,73.1,71.0,98,90,74,29.96,29.84,4,0,6,0.36
2012-8-21,78.0,75.1,72.0,74.0,72.3,69.0,97,91,83,30.07,29.95,9,2,10,0.13
2012-8-22,80.3,74.9,71.8,76.0,72.6,69.0,97,92,83,30.09,30.01,12,1,14,0.47
2012-8-23,81.6,74.4,69.8,77.0,72.7,69.0,99,95,80,30.10,30.05,8,1,12,0.47
2012-8-24,78.6,73.3,69.8,75.0,71.9,70.0,99,95,81,30.10,30.01,10,1,17,3.00
2012-8-25,79.2,74.4,71.1,74.0,72.0,70.0,99,92,80,30.12,29.99,17,3,30,0.76
2012-8-26,84.0,76.1,69.0,79.0,73.5,69.0,98,92,80,30.17,30.09,11,2,21,0.03
2012-8-27,85.6,79.6,74.7,79.0,76.7,74.0,97,91,78,30.13,30.03,18,5,19,0.20
2012-8-28,82.2,78.2,74.9,80.0,76.8,74.0,98,95,88,30.04,29.93,13,5,18,0.17
2012-8-29,82.2,77.9,74.1,77.0,75.3,74.0,98,92,82,30.01,29.90,8,2,9,0.00
2012-8-30,84.6,79.2,74.4,77.0,74.1,72.0,97,85,68,30.17,30.00,9,4,12,0.00
2012-8-31,87.0,79.6,71.6,79.0,75.2,71.0,99,87,68,30.22,30.10,13,5,15,0.00
2012-9-1,91.1,83.4,76.3,83.0,79.0,75.0,96,87,72,30.11,30.00,7,2,10,0.00
2012-9-2,90.6,78.4,71.5,83.0,76.4,70.0,100,94,76,30.05,29.97,12,1,22,1.75
2012-9-3,82.6,78.3,72.5,79.0,76.0,71.0,99,93,80,30.09,29.98,12,3,13,1.00
2012-9-4,84.0,80.2,75.5,80.0,76.6,74.0,99,89,78,30.05,29.96,14,5,16,0.20
2012-9-5,85.8,81.0,74.4,79.0,76.2,73.0,95,85,73,29.98,29.89,15,7,19,0.00
2012-9-6,87.4,81.3,72.9,80.0,76.5,71.0,97,85,67,29.97,29.88,16,7,21,0.64
2012-9-7,83.5,78.2,72.2,79.0,75.5,71.0,97,91,83,29.96,29.88,13,4,17,0.06
2012-9-8,84.3,80.2,74.0,79.0,76.8,72.0,96,89,80,29.88,29.76,19,8,21,0.33
2012-9-9,78.8,72.4,65.2,74.0,69.2,63.0,97,90,76,29.94,29.77,4,1,8,0.00
2012-9-10,78.1,69.0,61.2,62.0,59.4,57.0,92,74,49,30.16,29.93,6,1,10,0.00
2012-9-11,77.7,69.0,59.3,65.0,59.2,55.0,92,73,47,30.30,30.15,10,2,12,0.00
2012-9-12,76.6,69.4,59.9,67.0,62.3,56.0,93,79,63,30.33,30.27,10,2,15,0.00
2012-9-13,81.8,72.5,62.0,72.0,66.8,60.0,96,83,66,30.30,30.22,10,2,13,0.00
2012-9-14,79.6,74.1,68.8,74.0,70.9,68.0,97,90,80,30.22,30.13,10,2,12,0.00
2012-9-15,84.0,73.9,66.2,72.0,68.0,62.0,98,83,56,30.15,30.07,5,1,9,0.00
2012-9-16,76.4,71.1,62.5,66.0,62.4,58.0,92,75,55,30.16,30.08,9,2,10,0.00
2012-9-17,79.4,74.9,68.1,73.0,70.2,65.0,92,85,78,30.11,30.01,14,6,18,0.00
2012-9-18,81.8,77.4,72.5,77.0,74.4,71.0,96,90,79,30.01,29.80,25,12,32,0.99
2012-9-19,75.6,71.1,66.7,74.0,66.8,61.0,97,86,71,30.09,29.83,6,1,8,0.00
2012-9-20,76.7,69.2,63.2,67.0,63.6,61.0,92,83,67,30.12,30.04,6,0,7,0.00
2012-9-21,76.9,69.9,61.4,67.0,63.9,60.0,95,82,64,30.09,30.02,9,2,10,0.00
2012-9-22,80.9,72.6,64.6,72.0,68.0,64.0,97,86,67,30.04,29.95,13,3,16,0.00
2012-9-23,78.9,71.5,62.5,71.0,65.9,58.0,95,83,65,30.11,29.95,6,1,11,0.00
2012-9-24,73.0,65.8,57.0,60.0,56.1,53.0,91,72,50,30.21,30.10,11,3,15,0.00
2012-9-25,74.3,67.5,57.0,66.0,57.8,51.0,87,72,55,30.27,30.19,9,3,12,0.00
2012-9-26,81.1,71.5,61.1,69.0,64.1,59.0,92,78,52,30.25,30.17,9,3,11,0.00
2012-9-27,80.9,72.3,62.8,72.0,66.9,62.0,97,84,60,30.21,30.11,7,2,10,0.00
2012-9-28,81.2,73.3,64.2,72.0,68.9,64.0,98,87,67,30.12,29.99,12,3,13,0.00
2012-9-29,75.0,70.4,65.9,72.0,68.5,65.0,98,93,85,30.00,29.88,9,1,9,0.48
2012-9-30,73.6,67.2,63.0,66.0,64.8,63.0,99,92,77,29.92,29.85,7,1,9,0.00
2012-10-1,75.8,70.1,63.6,74.0,68.6,63.0,98,95,89,29.92,29.86,12,1,15,0.16
2012-10-2,77.4,76.2,74.8,77.0,75.3,74.0,99,97,92,30.02,29.86,11,5,16,0.52
2012-10-3,82.5,78.7,76.1,78.0,76.4,75.0,98,93,84,30.17,30.02,12,4,16,0.10
2012-10-4,84.5,77.5,70.8,76.0,72.9,69.0,98,86,66,30.21,30.13,6,1,9,0.00
2012-10-5,77.5,72.3,66.0,70.0,67.4,65.0,96,85,70,30.16,30.03,6,2,8,0.00
2012-10-6,81.2,73.8,65.1,71.0,67.6,64.0,98,82,59,30.03,29.88,12,3,13,0.00
2012-10-7,77.6,71.0,59.5,72.0,67.8,57.0,97,90,79,30.09,29.94,6,1,8,0.00
2012-10-8,68.4,61.8,56.2,65.0,59.3,54.0,98,91,84,30.17,30.03,5,1,12,0.22
2012-10-9,62.2,58.6,55.5,62.0,57.9,55.0,99,97,93,30.09,30.02,3,0,6,0.00
2012-10-10,68.6,61.0,57.1,58.0,57.0,55.0,98,87,67,30.08,29.97,7,0,8,0.00
2012-10-11,66.7,59.5,51.5,57.0,54.0,50.0,95,83,60,30.27,30.08,10,2,15,0.00
2012-10-12,71.8,62.4,51.9,59.0,53.8,51.0,97,75,54,30.32,30.13,7,1,7,0.00
2012-10-13,67.7,60.4,50.9,58.0,51.9,47.0,89,74,51,30.43,30.31,10,2,16,0.00
2012-10-14,76.0,65.4,54.7,68.0,61.4,53.0,98,87,69,30.33,30.08,5,2,7,0.00
2012-10-15,78.1,69.0,61.6,70.0,65.7,61.0,98,90,63,30.07,29.72,12,3,13,0.00
2012-10-16,67.1,60.5,53.8,63.0,53.4,49.0,96,79,54,29.94,29.77,5,1,10,0.00
2012-10-17,65.9,59.4,52.1,59.0,54.6,51.0,97,85,63,30.02,29.93,9,2,10,0.00
2012-10-18,75.5,67.1,56.0,70.0,63.7,54.0,96,89,64,29.97,29.82,5,2,8,0.00
2012-10-19,78.0,71.7,65.1,72.0,69.4,61.0,98,92,77,29.82,29.72,8,2,9,0.00
2012-10-20,74.5,65.5,57.0,60.0,54.2,48.0,87,68,40,29.91,29.78,11,2,15,0.00
2012-10-21,68.9,58.9,50.8,56.0,50.6,46.0,88,75,56,30.14,29.91,4,1,8,0.00
2012-10-22,69.3,58.3,48.8,55.0,51.3,47.0,95,79,49,30.23,30.14,5,2,7,0.00
2012-10-23,73.5,62.6,51.1,61.0,56.2,50.0,97,81,51,30.21,30.12,7,2,8,0.00
2012-10-24,75.6,66.7,56.3,70.0,63.3,55.0,98,89,73,30.20,30.10,7,2,8,0.00
2012-10-25,74.4,67.0,59.1,70.0,64.8,59.0,99,92,81,30.17,30.09,7,1,8,0.00
2012-10-26,76.3,67.5,60.4,71.0,65.5,60.0,99,93,78,30.09,29.83,6,1,17,0.01
2012-10-27,70.2,66.8,63.1,67.0,63.0,-99.9,97,92,87,29.82,29.50,9,3,16,1.26
2012-10-28,63.1,59.7,55.4,62.0,58.6,53.0,98,96,89,29.50,29.34,14,3,23,1.35
2012-10-29,55.6,52.3,47.5,53.0,48.6,41.0,96,87,78,29.40,29.31,8,2,13,0.01
2012-10-30,56.6,50.1,47.0,44.0,41.3,39.0,84,72,55,29.64,29.36,17,4,19,0.00
2012-10-31,58.3,51.5,44.7,46.0,42.0,39.0,81,71,57,29.79,29.64,15,2,18,0.00
2012-11-1,60.5,51.3,42.4,45.0,42.6,40.0,91,74,51,29.86,29.72,5,0,10,0.00
2012-11-2,62.9,51.0,41.2,47.0,42.6,39.0,94,75,47,29.97,29.80,16,2,17,0.00
2012-11-3,57.7,47.9,38.9,43.0,40.3,36.0,94,76,48,30.09,29.96,4,1,9,0.00
2012-11-4,59.8,49.9,43.1,52.0,45.7,41.0,96,86,69,30.10,29.94,10,1,12,0.09
2012-11-5,54.4,47.3,40.5,45.0,41.5,38.0,96,81,57,30.14,29.97,5,1,8,0.00
2012-11-6,48.9,44.3,39.0,46.0,42.4,37.0,97,93,85,30.11,29.84,5,1,12,0.34
2012-11-7,47.5,42.9,37.9,46.0,41.8,37.0,97,96,90,29.92,29.79,6,1,13,0.07
2012-11-8,57.2,44.6,35.4,40.0,36.3,33.0,97,75,44,30.07,29.91,3,0,9,0.00
2012-11-9,58.8,47.3,35.7,45.0,36.9,31.0,94,69,44,30.29,30.09,5,1,11,0.00
2012-11-10,63.6,51.1,40.0,53.0,46.4,39.0,97,85,48,30.43,30.29,3,0,5,0.00
2012-11-11,66.9,56.1,44.3,58.0,52.3,44.0,98,88,69,30.52,30.42,4,1,8,0.00
2012-11-12,70.0,62.3,55.2,64.0,59.5,54.0,97,90,76,30.46,30.24,8,1,10,0.00
2012-11-13,67.2,56.5,45.7,66.0,55.3,44.0,99,95,92,30.36,30.19,7,1,10,0.01
2012-11-14,52.1,47.9,44.5,46.0,43.6,41.0,96,85,79,30.41,30.32,8,2,11,0.00
2012-11-15,58.1,50.0,43.9,53.0,46.8,41.0,95,89,81,30.31,30.18,6,1,8,0.02
2012-11-16,58.2,50.2,42.4,49.0,45.8,38.0,96,85,68,30.35,30.18,9,1,11,0.00
2012-11-17,58.3,50.5,41.2,52.0,46.3,39.0,92,86,77,30.40,30.33,7,2,12,0.00
2012-11-18,59.8,56.1,53.2,56.0,53.9,51.0,96,92,85,30.35,30.20,9,3,14,0.41
2012-11-19,58.0,54.6,51.2,55.0,53.0,50.0,96,94,90,30.20,30.08,9,3,15,0.00
2012-11-20,57.2,52.2,47.5,54.0,50.5,46.0,97,93,87,30.11,30.04,4,1,12,0.00
2012-11-21,58.9,50.8,45.9,51.0,47.2,43.0,95,87,74,30.13,30.03,4,1,11,0.00
2012-11-22,60.3,51.2,43.2,52.0,46.7,41.0,93,85,72,30.16,30.08,5,2,12,0.00
2012-11-23,62.6,51.7,41.6,51.0,46.3,41.0,97,83,46,30.14,29.86,7,2,9,0.00
2012-11-24,54.1,47.0,35.5,47.0,36.1,27.0,89,67,47,30.11,29.85,6,1,10,0.00
2012-11-25,49.9,40.5,28.5,38.0,29.4,24.0,82,66,41,30.21,30.09,13,2,13,0.00
2012-11-26,59.6,49.2,40.8,47.0,40.9,27.0,95,75,30,30.24,30.13,6,1,7,0.00
2012-11-27,60.6,51.0,41.4,50.0,46.5,40.0,98,85,58,30.23,30.11,5,1,5,0.00
2012-11-28,50.9,45.5,38.6,45.0,39.0,34.0,96,80,55,30.38,30.19,5,1,10,0.00
2012-11-29,51.5,42.7,33.1,43.0,37.5,32.0,96,83,55,30.52,30.41,6,2,7,0.00
2012-11-30,54.5,44.1,34.2,47.0,40.5,33.0,97,88,68,30.45,30.34,5,1,6,0.00
2012-12-1,59.3,46.7,36.8,50.0,42.4,36.0,97,86,60,30.44,30.35,5,1,5,0.00
2012-12-2,60.8,50.8,40.0,53.0,47.0,39.0,96,87,70,30.43,30.29,4,1,4,0.00
2012-12-3,74.0,61.9,52.8,61.0,57.0,51.0,97,85,60,30.31,30.23,5,1,8,0.00
2012-12-4,68.4,58.8,50.6,62.0,56.6,50.0,98,92,78,30.35,30.21,6,1,8,0.00
2012-12-5,73.0,60.7,50.6,60.0,56.1,48.0,97,85,60,30.21,30.09,6,1,15,0.01
2012-12-6,53.2,49.6,46.1,50.0,43.9,41.0,94,81,68,30.31,30.20,5,1,9,0.00
2012-12-7,62.5,55.5,46.7,61.0,53.6,43.0,99,93,85,30.20,29.99,7,1,11,0.05
2012-12-8,66.9,60.6,55.5,62.0,59.1,55.0,100,95,80,30.09,29.95,6,1,7,0.01
2012-12-9,68.2,59.9,52.2,62.0,57.6,52.0,100,92,76,30.18,30.03,4,0,5,0.01
2012-12-10,69.1,63.9,60.2,67.0,62.5,58.0,99,95,89,30.03,29.78,12,4,14,0.09
2012-12-11,72.3,63.6,51.8,68.0,60.8,51.0,98,91,72,30.12,29.77,8,2,11,0.23
2012-12-12,52.3,48.9,44.8,51.0,47.8,44.0,97,96,92,30.27,30.11,5,1,11,0.45
2012-12-13,51.6,46.6,42.7,49.0,45.3,41.0,98,95,89,30.30,30.13,7,2,12,0.65
2012-12-14,57.0,46.1,38.3,49.0,43.2,38.0,98,90,72,30.36,30.24,8,2,9,0.00
2012-12-15,55.1,48.0,37.2,52.0,45.9,37.0,99,92,79,30.28,30.11,5,1,8,0.00
2012-12-16,61.0,57.7,54.3,61.0,57.2,53.0,100,98,94,30.10,29.91,3,0,5,0.09
2012-12-17,61.0,58.4,55.6,61.0,58.2,55.0,100,99,97,29.91,29.66,13,2,19,0.48
2012-12-18,64.6,56.2,46.0,58.0,53.2,42.0,98,90,66,29.92,29.66,7,2,13,0.01
2012-12-19,63.6,50.3,40.2,48.0,43.1,38.0,96,78,49,30.14,29.90,3,0,6,0.00
2012-12-20,64.5,55.5,44.7,60.0,51.7,43.0,97,87,82,30.19,29.61,22,5,29,0.04
2012-12-21,64.5,48.6,39.8,64.0,37.5,26.0,97,67,53,29.80,29.45,35,6,45,0.17
2012-12-22,49.3,42.0,36.8,31.0,28.2,25.0,71,59,41,30.11,29.80,7,2,11,0.00
2012-12-23,50.9,43.0,32.2,41.0,32.5,24.0,80,67,40,30.20,30.06,10,2,11,0.00
2012-12-24,61.2,50.9,43.1,49.0,42.1,36.0,89,73,39,30.10,29.94,9,2,11,0.00
2012-12-25,54.5,49.2,44.1,50.0,46.6,43.0,96,90,85,30.14,29.94,10,1,12,0.00
2012-12-26,63.1,55.9,47.1,62.0,53.3,44.0,99,91,72,30.08,29.45,25,7,33,1.22
2012-12-27,51.2,44.9,38.5,44.0,37.4,33.0,85,76,56,30.05,29.60,6,2,16,0.00
2012-12-28,45.8,39.7,31.2,41.0,34.2,29.0,91,81,70,30.19,30.04,9,1,11,0.00
2012-12-29,53.8,47.7,42.3,53.0,45.3,38.0,98,91,79,30.03,29.59,7,1,9,1.25
2012-12-30,47.1,40.0,34.1,37.0,28.1,-99.9,83,66,43,30.39,29.88,7,-10,11,0.00
2012-12-31,52.3,41.7,30.0,45.0,34.0,27.0,88,75,42,30.40,30.15,11,2,13,0.00
2013-1-1,55.9,53.0,48.7,53.0,48.8,44.0,96,86,75,30.14,29.96,8,2,10,0.01